createdAt,value
2019-05-29T00:00:12.934Z,99.90
2019-05-29T00:02:41.794Z,99.90
2019-05-29T00:05:10.551Z,99.90
2019-05-29T00:07:39.239Z,99.90
2019-05-29T00:10:10.382Z,99.90
2019-05-29T00:12:51.515Z,99.90
2019-05-29T00:15:20.213Z,99.90
2019-05-29T00:17:48.896Z,99.90
2019-05-29T00:20:18.569Z,99.90
2019-05-29T00:22:47.383Z,99.90
2019-05-29T00:25:16.674Z,99.90
2019-05-29T00:27:45.471Z,99.90
2019-05-29T00:30:15.055Z,99.90
2019-05-29T00:32:43.727Z,99.90
2019-05-29T00:35:12.533Z,99.90
2019-05-29T00:37:41.147Z,99.90
2019-05-29T00:40:10.933Z,99.90
2019-05-29T00:42:39.668Z,99.90
2019-05-29T00:45:09.564Z,99.90
2019-05-29T00:47:38.432Z,99.90
2019-05-29T00:50:07.980Z,99.90
2019-05-29T00:52:36.728Z,99.90
2019-05-29T00:55:06.328Z,99.90
2019-05-29T00:57:35.027Z,99.90
2019-05-29T01:00:05.621Z,99.90
2019-05-29T01:02:34.319Z,99.90
2019-05-29T01:05:03.619Z,99.90
2019-05-29T01:07:32.318Z,99.90
2019-05-29T01:10:01.012Z,99.90
2019-05-29T01:12:29.717Z,99.90
2019-05-29T01:14:58.408Z,99.90
2019-05-29T01:17:27.024Z,99.90
2019-05-29T01:19:55.723Z,99.90
2019-05-29T01:22:24.411Z,99.90
2019-05-29T01:24:53.125Z,99.90
2019-05-29T01:27:23.017Z,99.90
2019-05-29T01:29:51.832Z,99.90
2019-05-29T01:32:21.561Z,99.90
2019-05-29T01:34:50.425Z,99.90
2019-05-29T01:37:20.223Z,99.90
2019-05-29T01:39:49.017Z,99.90
2019-05-29T01:42:17.720Z,99.90
2019-05-29T01:44:46.409Z,99.90
2019-05-29T01:47:15.340Z,99.90
2019-05-29T01:49:44.104Z,99.90
2019-05-29T01:52:12.809Z,99.90
2019-05-29T01:54:41.496Z,99.90
2019-05-29T01:57:10.200Z,99.90
2019-05-29T01:59:38.888Z,99.90
2019-05-29T02:02:07.876Z,99.90
2019-05-29T02:04:36.567Z,99.90
2019-05-29T02:07:05.863Z,99.90
2019-05-29T02:09:34.570Z,99.90
2019-05-29T02:12:03.332Z,99.90
2019-05-29T02:14:32.038Z,99.90
2019-05-29T02:17:00.747Z,99.90
2019-05-29T02:19:29.451Z,99.90
2019-05-29T02:21:58.143Z,99.90
2019-05-29T02:24:27.459Z,99.90
2019-05-29T02:26:56.288Z,99.90
2019-05-29T02:29:25.012Z,99.90
2019-05-29T02:31:53.732Z,99.90
2019-05-29T02:34:23.207Z,99.90
2019-05-29T02:36:52.827Z,99.90
2019-05-29T02:39:22.905Z,99.90
2019-05-29T02:42:11.183Z,99.90
2019-05-29T02:44:40.109Z,99.90
2019-05-29T02:47:08.842Z,99.90
2019-05-29T02:49:37.560Z,99.90
2019-05-29T02:52:06.488Z,99.90
2019-05-29T02:54:35.209Z,99.90
2019-05-29T02:57:04.009Z,99.90
2019-05-29T02:59:32.730Z,99.90
2019-05-29T03:02:01.455Z,99.90
2019-05-29T03:04:30.467Z,99.90
2019-05-29T03:07:00.740Z,99.90
2019-05-29T03:09:30.734Z,99.90
2019-05-29T03:12:00.435Z,99.90
2019-05-29T03:14:29.784Z,99.90
2019-05-29T03:16:59.631Z,99.90
2019-05-29T03:19:30.148Z,99.90
2019-05-29T03:21:58.735Z,99.90
2019-05-29T03:24:28.629Z,99.90
2019-05-29T03:26:57.433Z,99.90
2019-05-29T03:29:27.980Z,99.90
2019-05-29T03:31:56.485Z,99.90
2019-05-29T03:34:30.431Z,99.90
2019-05-29T03:36:55.445Z,99.90
2019-05-29T03:39:24.127Z,99.90
2019-05-29T03:41:52.832Z,99.90
2019-05-29T03:44:21.537Z,99.90
2019-05-29T03:46:50.261Z,99.90
2019-05-29T03:49:18.990Z,99.90
2019-05-29T03:51:47.701Z,99.90
2019-05-29T03:54:16.396Z,99.90
2019-05-29T03:56:45.095Z,99.90
2019-05-29T03:59:13.785Z,99.90
2019-05-29T04:01:42.477Z,99.90
2019-05-29T04:04:11.172Z,99.90
2019-05-29T04:06:39.872Z,99.90
2019-05-29T04:09:08.576Z,99.90
2019-05-29T04:11:38.154Z,99.90
2019-05-29T04:14:07.845Z,99.90
2019-05-29T04:16:58.103Z,99.90
2019-05-29T04:19:09.350Z,99.90
2019-05-29T04:21:39.036Z,99.90
2019-05-29T04:24:07.744Z,99.90
2019-05-29T04:26:43.976Z,99.90
2019-05-29T04:29:13.671Z,99.90
2019-05-29T04:31:42.367Z,99.90
2019-05-29T04:34:11.246Z,96.90
2019-05-29T04:36:39.938Z,95.40
2019-05-29T04:39:08.629Z,95.80
2019-05-29T04:41:38.848Z,94.10
2019-05-29T04:44:07.678Z,86.50
2019-05-29T04:46:38.198Z,73.40
2019-05-29T04:49:06.721Z,66.30
2019-05-29T04:51:35.589Z,62.10
2019-05-29T04:54:05.622Z,57.80
2019-05-29T04:56:34.879Z,57.50
2019-05-29T04:59:05.051Z,56.50
2019-05-29T05:01:35.021Z,55.70
2019-05-29T05:04:03.833Z,55.40
2019-05-29T05:06:33.215Z,55.70
2019-05-29T05:09:02.123Z,56.20
2019-05-29T05:11:31.291Z,52.90
2019-05-29T05:14:01.781Z,52.10
2019-05-29T05:16:31.577Z,51.00
2019-05-29T05:19:00.439Z,50.70
2019-05-29T05:21:29.863Z,49.20
2019-05-29T05:23:58.639Z,51.50
2019-05-29T05:26:27.343Z,51.00
2019-05-29T05:28:56.362Z,49.20
2019-05-29T05:31:25.059Z,48.10
2019-05-29T05:33:53.755Z,48.90
2019-05-29T05:36:22.542Z,46.00
2019-05-29T05:38:51.271Z,45.60
2019-05-29T05:41:19.971Z,45.70
2019-05-29T05:43:48.667Z,48.90
2019-05-29T05:46:17.474Z,47.70
2019-05-29T05:48:46.168Z,47.10
2019-05-29T05:51:14.871Z,48.10
2019-05-29T05:53:43.679Z,48.80
2019-05-29T05:56:12.459Z,48.90
2019-05-29T05:58:42.180Z,47.80
2019-05-29T06:01:11.192Z,46.00
2019-05-29T06:03:40.652Z,46.00
2019-05-29T06:06:09.603Z,45.20
2019-05-29T06:08:38.303Z,42.90
2019-05-29T06:11:07.065Z,41.10
2019-05-29T06:13:36.325Z,40.40
2019-05-29T06:16:05.116Z,41.00
2019-05-29T06:18:34.471Z,41.70
2019-05-29T06:21:03.296Z,42.30
2019-05-29T06:23:32.773Z,40.80
2019-05-29T06:26:01.538Z,39.10
2019-05-29T06:28:30.232Z,40.00
2019-05-29T06:30:58.936Z,39.00
2019-05-29T06:33:27.631Z,41.30
2019-05-29T06:35:56.339Z,43.50
2019-05-29T06:38:25.039Z,40.40
2019-05-29T06:40:53.735Z,40.10
2019-05-29T06:43:24.209Z,40.10
2019-05-29T06:45:53.687Z,42.90
2019-05-29T06:48:42.431Z,45.80
2019-05-29T06:50:58.306Z,45.90
2019-05-29T06:53:27.511Z,48.00
2019-05-29T06:55:57.548Z,47.60
2019-05-29T06:58:26.840Z,45.00
2019-05-29T07:00:55.532Z,45.20
2019-05-29T07:03:24.256Z,42.10
2019-05-29T07:05:53.156Z,44.70
2019-05-29T07:08:37.516Z,44.20
2019-05-29T07:10:52.294Z,42.30
2019-05-29T07:13:20.995Z,43.00
2019-05-29T07:15:49.718Z,38.50
2019-05-29T07:18:18.395Z,37.50
2019-05-29T07:20:47.110Z,38.00
2019-05-29T07:23:15.797Z,39.30
2019-05-29T07:25:45.635Z,41.60
2019-05-29T07:28:14.538Z,46.30
2019-05-29T07:30:49.666Z,42.10
2019-05-29T07:33:13.609Z,40.00
2019-05-29T07:35:43.528Z,36.50
2019-05-29T07:38:12.307Z,33.30
2019-05-29T07:40:42.515Z,33.00
2019-05-29T07:43:11.367Z,34.40
2019-05-29T07:45:40.619Z,36.50
2019-05-29T07:48:09.676Z,37.80
2019-05-29T07:50:38.367Z,35.40
2019-05-29T07:53:07.171Z,33.10
2019-05-29T07:55:35.875Z,32.70
2019-05-29T07:58:04.681Z,33.20
2019-05-29T08:00:35.758Z,34.40
2019-05-29T08:03:03.766Z,31.40
2019-05-29T08:05:32.460Z,30.60
2019-05-29T08:08:01.167Z,30.00
2019-05-29T08:10:29.891Z,30.00
2019-05-29T08:12:58.600Z,29.60
2019-05-29T08:15:27.404Z,28.40
2019-05-29T08:17:56.105Z,31.40
2019-05-29T08:20:24.804Z,30.30
2019-05-29T08:22:53.503Z,29.90
2019-05-29T08:25:22.201Z,29.60
2019-05-29T08:27:50.900Z,29.00
2019-05-29T08:30:19.809Z,28.10
2019-05-29T08:32:49.251Z,28.20
2019-05-29T08:35:18.110Z,28.80
2019-05-29T08:37:47.004Z,28.90
2019-05-29T08:40:17.515Z,30.20
2019-05-29T08:42:47.313Z,32.30
2019-05-29T08:45:16.583Z,29.90
2019-05-29T08:47:45.607Z,29.00
2019-05-29T08:50:18.608Z,27.80
2019-05-29T08:52:45.990Z,27.10
2019-05-29T08:55:14.855Z,27.00
2019-05-29T08:57:44.240Z,27.90
2019-05-29T09:00:13.931Z,27.30
2019-05-29T09:02:42.811Z,28.00
2019-05-29T09:05:12.567Z,28.30
2019-05-29T09:07:41.240Z,27.80
2019-05-29T09:10:10.336Z,27.50
2019-05-29T09:12:39.038Z,29.20
2019-05-29T09:15:10.518Z,28.70
2019-05-29T09:17:39.360Z,27.60
2019-05-29T09:20:25.522Z,28.30
2019-05-29T09:22:39.232Z,31.10
2019-05-29T09:25:08.119Z,28.60
2019-05-29T09:27:36.819Z,29.80
2019-05-29T09:30:07.343Z,29.00
2019-05-29T09:32:49.339Z,30.70
2019-05-29T09:35:06.689Z,30.60
2019-05-29T09:37:35.364Z,29.50
2019-05-29T09:40:08.952Z,29.60
2019-05-29T09:42:37.659Z,33.10
2019-05-29T09:45:06.955Z,30.10
2019-05-29T09:47:35.778Z,33.50
2019-05-29T09:50:07.739Z,30.50
2019-05-29T09:52:36.491Z,30.70
2019-05-29T09:55:08.545Z,30.10
2019-05-29T09:57:37.246Z,31.20
2019-05-29T10:00:08.946Z,33.30
2019-05-29T10:02:37.641Z,32.00
2019-05-29T10:05:07.857Z,30.00
2019-05-29T10:07:36.848Z,32.90
2019-05-29T10:10:10.796Z,32.80
2019-05-29T10:12:39.696Z,33.90
2019-05-29T10:15:10.391Z,33.50
2019-05-29T10:17:39.095Z,34.80
2019-05-29T10:20:09.591Z,36.60
2019-05-29T10:22:38.591Z,35.60
2019-05-29T10:25:07.883Z,35.30
2019-05-29T10:27:36.593Z,36.40
2019-05-29T10:30:09.019Z,37.50
2019-05-29T10:32:37.721Z,35.50
2019-05-29T10:35:06.515Z,36.60
2019-05-29T10:37:35.234Z,34.00
2019-05-29T10:40:24.717Z,36.40
2019-05-29T10:42:53.835Z,37.00
2019-05-29T10:45:22.638Z,37.00
2019-05-29T10:47:52.339Z,35.30
2019-05-29T10:50:22.063Z,35.00
2019-05-29T10:52:50.758Z,34.00
2019-05-29T10:55:22.959Z,32.90
2019-05-29T10:57:53.161Z,32.20
2019-05-29T11:00:22.356Z,34.10
2019-05-29T11:02:53.490Z,36.00
2019-05-29T11:05:21.404Z,37.70
2019-05-29T11:07:50.108Z,34.20
2019-05-29T11:10:19.311Z,33.20
2019-05-29T11:12:48.395Z,33.20
2019-05-29T11:15:21.741Z,34.90
2019-05-29T11:17:49.571Z,35.50
2019-05-29T11:20:19.867Z,34.50
2019-05-29T11:22:49.561Z,34.00
2019-05-29T11:25:23.536Z,35.40
2019-05-29T11:27:50.277Z,35.20
2019-05-29T11:30:19.519Z,36.50
2019-05-29T11:32:50.249Z,32.90
2019-05-29T11:35:18.859Z,32.20
2019-05-29T11:37:47.551Z,34.00
2019-05-29T11:40:17.330Z,34.20
2019-05-29T11:42:45.987Z,36.50
2019-05-29T11:45:16.089Z,33.50
2019-05-29T11:47:44.856Z,34.60
2019-05-29T11:50:19.601Z,35.40
2019-05-29T11:52:44.637Z,35.70
2019-05-29T11:55:13.533Z,33.60
2019-05-29T11:57:42.223Z,34.00
2019-05-29T12:00:19.790Z,32.00
2019-05-29T12:02:43.384Z,33.50
2019-05-29T12:05:12.573Z,32.80
2019-05-29T12:07:41.275Z,32.90
2019-05-29T12:10:10.554Z,33.40
2019-05-29T12:12:39.307Z,31.30
2019-05-29T12:15:14.182Z,32.80
2019-05-29T12:17:39.081Z,33.00
2019-05-29T12:20:26.454Z,33.20
2019-05-29T12:22:40.152Z,35.00
2019-05-29T12:25:09.246Z,31.70
2019-05-29T12:27:37.951Z,34.50
2019-05-29T12:30:08.356Z,31.00
2019-05-29T12:32:37.055Z,32.90
2019-05-29T12:35:08.051Z,31.90
2019-05-29T12:37:36.768Z,32.80
2019-05-29T12:40:07.465Z,34.90
2019-05-29T12:42:36.223Z,34.80
2019-05-29T12:45:07.903Z,33.50
2019-05-29T12:47:36.606Z,35.20
2019-05-29T12:50:13.737Z,36.80
2019-05-29T12:52:42.728Z,35.80
2019-05-29T12:55:11.627Z,33.20
2019-05-29T12:57:40.328Z,34.40
2019-05-29T13:00:14.134Z,33.10
2019-05-29T13:02:42.811Z,32.60
2019-05-29T13:05:19.722Z,30.00
2019-05-29T13:07:43.155Z,32.00
2019-05-29T13:10:29.486Z,32.90
2019-05-29T13:12:44.420Z,33.40
2019-05-29T13:15:14.942Z,34.00
2019-05-29T13:17:43.712Z,32.70
2019-05-29T13:20:21.501Z,34.60
2019-05-29T13:22:44.594Z,33.60
2019-05-29T13:25:14.868Z,32.70
2019-05-29T13:27:43.570Z,31.80
2019-05-29T13:30:14.339Z,32.20
2019-05-29T13:32:43.342Z,31.60
2019-05-29T13:35:13.888Z,34.70
2019-05-29T13:37:42.588Z,33.20
2019-05-29T13:40:11.695Z,34.90
2019-05-29T13:42:40.491Z,33.20
2019-05-29T13:45:17.849Z,33.70
2019-05-29T13:47:41.748Z,34.30
2019-05-29T13:50:12.606Z,35.20
2019-05-29T13:52:41.193Z,34.50
2019-05-29T13:55:13.168Z,34.90
2019-05-29T13:57:41.870Z,36.20
2019-05-29T14:00:33.840Z,35.60
2019-05-29T14:02:44.469Z,34.80
2019-05-29T14:05:14.809Z,35.10
2019-05-29T14:07:43.515Z,35.90
2019-05-29T14:10:12.499Z,38.40
2019-05-29T14:12:41.127Z,36.60
2019-05-29T14:15:12.408Z,36.00
2019-05-29T14:17:41.198Z,35.30
2019-05-29T14:20:10.691Z,37.20
2019-05-29T14:22:39.396Z,37.90
2019-05-29T14:25:11.683Z,37.70
2019-05-29T14:27:40.467Z,37.40
2019-05-29T14:30:11.065Z,34.70
2019-05-29T14:32:39.880Z,34.70
2019-05-29T14:35:10.881Z,35.60
2019-05-29T14:37:39.448Z,37.40
2019-05-29T14:40:09.711Z,37.00
2019-05-29T14:42:38.511Z,37.20
2019-05-29T14:45:08.276Z,38.10
2019-05-29T14:47:37.015Z,38.00
2019-05-29T14:50:10.957Z,37.40
2019-05-29T14:52:39.869Z,38.00
2019-05-29T14:55:11.420Z,38.90
2019-05-29T14:57:39.212Z,40.20
2019-05-29T15:00:20.602Z,37.90
2019-05-29T15:02:41.436Z,39.20
2019-05-29T15:05:12.091Z,39.80
2019-05-29T15:07:41.080Z,39.80
2019-05-29T15:10:23.945Z,39.20
2019-05-29T15:12:40.715Z,38.20
2019-05-29T15:15:13.099Z,36.80
2019-05-29T15:17:41.347Z,38.30
2019-05-29T15:20:12.582Z,40.70
2019-05-29T15:22:41.319Z,39.80
2019-05-29T15:25:18.329Z,40.50
2019-05-29T15:27:41.156Z,41.00
2019-05-29T15:30:11.526Z,40.50
2019-05-29T15:32:41.099Z,39.70
2019-05-29T15:35:14.496Z,41.30
2019-05-29T15:37:40.879Z,40.60
2019-05-29T15:40:11.013Z,42.00
2019-05-29T15:42:39.767Z,41.40
2019-05-29T15:45:09.920Z,40.70
2019-05-29T15:47:38.748Z,41.10
2019-05-29T15:50:11.120Z,41.50
2019-05-29T15:52:40.191Z,39.80
2019-05-29T15:55:24.867Z,39.70
2019-05-29T15:57:40.233Z,40.50
2019-05-29T16:00:11.422Z,39.50
2019-05-29T16:02:40.535Z,40.00
2019-05-29T16:05:11.174Z,39.80
2019-05-29T16:07:39.955Z,40.80
2019-05-29T16:10:13.131Z,40.00
2019-05-29T16:12:40.084Z,39.30
2019-05-29T16:15:11.356Z,40.20
2019-05-29T16:17:40.077Z,41.30
2019-05-29T16:20:10.356Z,42.40
2019-05-29T16:22:39.345Z,41.50
2019-05-29T16:25:08.779Z,42.20
2019-05-29T16:27:37.519Z,43.30
2019-05-29T16:30:08.316Z,42.40
2019-05-29T16:32:37.024Z,41.90
2019-05-29T16:35:10.974Z,41.90
2019-05-29T16:37:39.859Z,43.80
2019-05-29T16:40:14.163Z,44.10
2019-05-29T16:42:42.984Z,43.70
2019-05-29T16:45:14.072Z,42.70
2019-05-29T16:47:42.926Z,42.70
2019-05-29T16:50:14.757Z,43.60
2019-05-29T16:52:43.719Z,43.90
2019-05-29T16:55:14.985Z,43.90
2019-05-29T16:57:43.656Z,45.30
2019-05-29T17:00:13.812Z,46.00
2019-05-29T17:02:42.823Z,45.40
2019-05-29T17:05:11.520Z,46.20
2019-05-29T17:07:40.216Z,46.40
2019-05-29T17:10:09.811Z,49.60
2019-05-29T17:12:38.527Z,48.40
2019-05-29T17:15:09.495Z,47.80
2019-05-29T17:17:38.291Z,48.20
2019-05-29T17:20:10.671Z,47.70
2019-05-29T17:22:39.379Z,48.70
2019-05-29T17:25:08.471Z,48.80
2019-05-29T17:27:37.174Z,49.10
2019-05-29T17:30:07.264Z,48.20
2019-05-29T17:32:35.964Z,48.30
2019-05-29T17:35:06.907Z,48.00
2019-05-29T17:37:35.688Z,48.10
2019-05-29T17:40:23.663Z,48.80
2019-05-29T17:42:52.359Z,48.20
2019-05-29T17:45:23.948Z,49.00
2019-05-29T17:47:51.519Z,49.40
2019-05-29T17:50:22.904Z,50.10
2019-05-29T17:52:50.679Z,49.80
2019-05-29T17:55:21.857Z,50.30
2019-05-29T17:57:49.835Z,50.00
2019-05-29T18:00:20.654Z,50.30
2019-05-29T18:02:52.457Z,50.10
2019-05-29T18:05:20.449Z,50.60
2019-05-29T18:07:49.259Z,50.90
2019-05-29T18:10:20.301Z,52.20
2019-05-29T18:12:48.653Z,51.80
2019-05-29T18:15:19.565Z,52.00
2019-05-29T18:17:48.351Z,51.90
2019-05-29T18:20:17.918Z,51.10
2019-05-29T18:22:46.648Z,51.30
2019-05-29T18:25:15.552Z,51.30
2019-05-29T18:27:44.240Z,50.50
2019-05-29T18:30:13.628Z,50.80
2019-05-29T18:32:42.315Z,52.00
2019-05-29T18:35:11.308Z,51.50
2019-05-29T18:37:40.009Z,51.90
2019-05-29T18:40:12.440Z,52.70
2019-05-29T18:42:39.727Z,52.70
2019-05-29T18:45:20.424Z,52.90
2019-05-29T18:47:39.732Z,52.70
2019-05-29T18:50:10.244Z,52.80
2019-05-29T18:52:38.936Z,53.10
2019-05-29T18:55:08.635Z,53.30
2019-05-29T18:57:37.335Z,53.80
2019-05-29T19:00:08.981Z,54.30
2019-05-29T19:02:37.685Z,55.20
2019-05-29T19:05:07.283Z,55.30
2019-05-29T19:07:35.991Z,55.40
2019-05-29T19:10:08.429Z,56.20
2019-05-29T19:12:37.123Z,55.70
2019-05-29T19:15:07.287Z,56.80
2019-05-29T19:17:36.003Z,57.20
2019-05-29T19:20:05.984Z,57.80
2019-05-29T19:22:34.683Z,57.90
2019-05-29T19:25:04.279Z,58.50
2019-05-29T19:27:40.183Z,58.00
2019-05-29T19:30:04.131Z,59.80
2019-05-29T19:32:33.962Z,58.70
2019-05-29T19:35:02.841Z,59.00
2019-05-29T19:37:32.113Z,59.80
2019-05-29T19:40:00.935Z,60.40
2019-05-29T19:42:30.229Z,60.60
2019-05-29T19:44:59.104Z,61.00
2019-05-29T19:47:28.567Z,61.90
2019-05-29T19:49:57.265Z,62.70
2019-05-29T19:52:44.039Z,63.80
2019-05-29T19:55:12.727Z,65.60
2019-05-29T19:57:55.094Z,67.90
2019-05-29T20:00:14.850Z,68.20
2019-05-29T20:02:43.532Z,72.20
2019-05-29T20:05:12.535Z,76.00
2019-05-29T20:07:41.365Z,79.20
2019-05-29T20:10:10.479Z,86.60
2019-05-29T20:12:39.176Z,85.20
2019-05-29T20:15:08.989Z,86.90
2019-05-29T20:17:38.479Z,87.90
2019-05-29T20:20:09.036Z,90.80
2019-05-29T20:22:38.921Z,92.50
2019-05-29T20:25:08.431Z,91.30
2019-05-29T20:27:38.355Z,92.70
2019-05-29T20:30:09.872Z,94.90
2019-05-29T20:32:38.935Z,95.70
2019-05-29T20:35:07.958Z,94.80
2019-05-29T20:37:36.650Z,96.10
2019-05-29T20:40:08.852Z,95.50
2019-05-29T20:42:38.502Z,97.80
2019-05-29T20:45:08.643Z,99.90
2019-05-29T20:47:38.040Z,99.10
2019-05-29T20:50:07.805Z,99.90
2019-05-29T20:52:37.320Z,99.80
2019-05-29T20:55:06.711Z,99.90
2019-05-29T20:57:35.856Z,99.90
2019-05-29T21:00:10.227Z,99.90
2019-05-29T21:02:40.297Z,99.90
2019-05-29T21:05:09.807Z,99.90
2019-05-29T21:07:38.841Z,99.90
2019-05-29T21:10:08.666Z,99.90
2019-05-29T21:12:37.907Z,99.90
2019-05-29T21:15:07.699Z,99.90
2019-05-29T21:17:37.767Z,99.90
2019-05-29T21:20:08.103Z,99.90
2019-05-29T21:22:38.472Z,99.90
2019-05-29T21:25:12.513Z,99.90
2019-05-29T21:27:42.990Z,99.90
2019-05-29T21:30:09.480Z,99.90
2019-05-29T21:32:40.034Z,99.90
2019-05-29T21:35:08.747Z,99.90
2019-05-29T21:37:38.203Z,99.90
2019-05-29T21:40:07.836Z,99.90
2019-05-29T21:42:36.702Z,99.90
2019-05-29T21:45:06.423Z,99.90
2019-05-29T21:47:35.252Z,99.90
2019-05-29T21:50:09.379Z,99.90
2019-05-29T21:52:39.164Z,99.90
2019-05-29T21:55:08.571Z,99.90
2019-05-29T21:57:37.790Z,99.90
2019-05-29T22:00:14.312Z,99.90
2019-05-29T22:02:44.446Z,99.90
2019-05-29T22:05:13.712Z,99.90
2019-05-29T22:07:42.788Z,99.90
2019-05-29T22:10:12.057Z,99.90
2019-05-29T22:12:40.741Z,99.90
2019-05-29T22:15:10.136Z,99.90
2019-05-29T22:17:38.827Z,99.90
2019-05-29T22:20:07.898Z,99.90
2019-05-29T22:22:36.657Z,99.90
2019-05-29T22:25:08.255Z,99.90
2019-05-29T22:27:37.647Z,99.90
2019-05-29T22:30:07.699Z,99.90
2019-05-29T22:32:36.404Z,99.90
2019-05-29T22:35:08.176Z,99.90
2019-05-29T22:37:37.106Z,99.90
2019-05-29T22:40:07.295Z,99.90
2019-05-29T22:42:35.985Z,99.90
2019-05-29T22:45:06.385Z,99.90
2019-05-29T22:47:35.177Z,99.90
2019-05-29T22:50:05.664Z,99.90
2019-05-29T22:52:34.363Z,99.90
2019-05-29T22:55:03.256Z,99.90
2019-05-29T22:57:31.948Z,99.90
2019-05-29T23:00:00.642Z,99.90
2019-05-29T23:02:29.331Z,99.90
2019-05-29T23:04:58.457Z,99.90
2019-05-29T23:07:27.325Z,99.90
2019-05-29T23:09:56.146Z,99.90
2019-05-29T23:12:24.909Z,99.90
2019-05-29T23:14:54.410Z,99.90
2019-05-29T23:17:23.224Z,99.90
2019-05-29T23:19:52.447Z,99.90
2019-05-29T23:22:24.354Z,99.90
2019-05-29T23:24:52.639Z,99.90
2019-05-29T23:27:21.360Z,99.90
2019-05-29T23:29:49.971Z,99.90
2019-05-29T23:32:18.671Z,99.90
2019-05-29T23:34:47.355Z,99.90
2019-05-29T23:37:16.052Z,99.90
2019-05-29T23:39:44.743Z,99.90
2019-05-29T23:42:13.435Z,99.90
2019-05-29T23:44:42.145Z,99.90
2019-05-29T23:47:10.835Z,99.90
2019-05-29T23:49:39.591Z,99.90
2019-05-29T23:52:08.283Z,99.90
2019-05-29T23:54:36.979Z,99.90
2019-05-29T23:57:05.680Z,99.90
2019-05-29T23:59:34.371Z,99.90
